sensor_id;sensor_type;location;lat;lon;timestamp;pressure;altitude;pressure_sealevel;temperature;humidity
35226;BME280;21813;49.686;21.766;2023-10-13T00:02:04;98510.47;;;13.77;100.00
35226;BME280;21813;49.686;21.766;2023-10-13T00:04:44;98520.97;;;13.87;100.00
35226;BME280;21813;49.686;21.766;2023-10-13T00:07:19;98502.03;;;13.73;100.00
35226;BME280;21813;49.686;21.766;2023-10-13T00:10:00;98519.84;;;13.80;100.00
35226;BME280;21813;49.686;21.766;2023-10-13T00:12:36;98505.78;;;13.71;100.00
35226;BME280;21813;49.686;21.766;2023-10-13T00:15:05;98519.28;;;13.76;100.00
35226;BME280;21813;49.686;21.766;2023-10-13T00:17:45;98511.16;;;13.69;100.00
35226;BME280;21813;49.686;21.766;2023-10-13T00:20:15;98499.03;;;13.68;100.00
35226;BME280;21813;49.686;21.766;2023-10-13T00:23:16;98506.75;;;13.70;100.00
35226;BME280;21813;49.686;21.766;2023-10-13T00:26:13;98528.66;;;13.79;100.00
35226;BME280;21813;49.686;21.766;2023-10-13T00:28:56;98515.84;;;13.76;100.00
35226;BME280;21813;49.686;21.766;2023-10-13T00:31:41;98515.31;;;13.72;100.00
35226;BME280;21813;49.686;21.766;2023-10-13T00:34:20;98527.69;;;13.80;100.00
35226;BME280;21813;49.686;21.766;2023-10-13T00:36:54;98511.16;;;13.69;100.00
35226;BME280;21813;49.686;21.766;2023-10-13T00:40:01;98518.06;;;13.70;100.00
35226;BME280;21813;49.686;21.766;2023-10-13T00:42:34;98521.78;;;13.78;100.00
35226;BME280;21813;49.686;21.766;2023-10-13T00:45:16;98517.75;;;13.73;100.00
35226;BME280;21813;49.686;21.766;2023-10-13T00:47:46;98521.09;;;13.76;100.00
35226;BME280;21813;49.686;21.766;2023-10-13T00:50:23;98519.59;;;13.73;100.00
35226;BME280;21813;49.686;21.766;2023-10-13T00:52:59;98524.13;;;13.71;100.00
35226;BME280;21813;49.686;21.766;2023-10-13T00:55:27;98499.88;;;13.59;100.00
35226;BME280;21813;49.686;21.766;2023-10-13T00:58:01;98499.59;;;13.62;100.00
35226;BME280;21813;49.686;21.766;2023-10-13T01:00:36;98502.22;;;13.62;100.00
35226;BME280;21813;49.686;21.766;2023-10-13T01:03:29;98514.75;;;13.68;100.00
35226;BME280;21813;49.686;21.766;2023-10-13T01:06:13;98512.28;;;13.67;100.00
35226;BME280;21813;49.686;21.766;2023-10-13T01:08:46;98503.16;;;13.61;100.00
35226;BME280;21813;49.686;21.766;2023-10-13T01:11:20;98513.78;;;13.69;100.00
35226;BME280;21813;49.686;21.766;2023-10-13T01:13:57;98517.50;;;13.67;100.00
35226;BME280;21813;49.686;21.766;2023-10-13T01:16:28;98511.97;;;13.60;100.00
35226;BME280;21813;49.686;21.766;2023-10-13T01:19:02;98523.56;;;13.67;100.00
35226;BME280;21813;49.686;21.766;2023-10-13T01:21:30;98516.66;;;13.57;100.00
35226;BME280;21813;49.686;21.766;2023-10-13T01:24:01;98515.84;;;13.56;100.00
35226;BME280;21813;49.686;21.766;2023-10-13T01:26:30;98509.78;;;13.46;100.00
35226;BME280;21813;49.686;21.766;2023-10-13T01:29:02;98517.09;;;13.52;100.00
35226;BME280;21813;49.686;21.766;2023-10-13T01:31:29;98501.78;;;13.38;100.00
35226;BME280;21813;49.686;21.766;2023-10-13T01:33:59;98506.72;;;13.41;100.00
35226;BME280;21813;49.686;21.766;2023-10-13T01:36:26;98499.88;;;13.40;100.00
35226;BME280;21813;49.686;21.766;2023-10-13T01:38:56;98499.72;;;13.42;100.00
35226;BME280;21813;49.686;21.766;2023-10-13T01:41:27;98495.47;;;13.41;100.00
35226;BME280;21813;49.686;21.766;2023-10-13T01:44:03;98497.91;;;13.42;100.00
35226;BME280;21813;49.686;21.766;2023-10-13T01:46:30;98501.09;;;13.46;100.00
35226;BME280;21813;49.686;21.766;2023-10-13T01:48:58;98492.44;;;13.45;100.00
35226;BME280;21813;49.686;21.766;2023-10-13T01:51:24;98493.38;;;13.44;100.00
35226;BME280;21813;49.686;21.766;2023-10-13T01:53:54;98488.28;;;13.43;100.00
35226;BME280;21813;49.686;21.766;2023-10-13T01:56:24;98505.09;;;13.50;100.00
35226;BME280;21813;49.686;21.766;2023-10-13T01:58:51;98504.28;;;13.49;100.00
35226;BME280;21813;49.686;21.766;2023-10-13T02:01:19;98494.63;;;13.40;100.00
35226;BME280;21813;49.686;21.766;2023-10-13T02:03:58;98508.69;;;13.39;100.00
35226;BME280;21813;49.686;21.766;2023-10-13T02:06:32;98513.91;;;13.39;100.00
35226;BME280;21813;49.686;21.766;2023-10-13T02:09:08;98508.13;;;13.36;100.00
35226;BME280;21813;49.686;21.766;2023-10-13T02:11:52;98506.47;;;13.35;100.00
35226;BME280;21813;49.686;21.766;2023-10-13T02:14:22;98519.16;;;13.39;100.00
35226;BME280;21813;49.686;21.766;2023-10-13T02:16:52;98502.31;;;13.32;100.00
35226;BME280;21813;49.686;21.766;2023-10-13T02:19:45;98505.63;;;13.34;100.00
35226;BME280;21813;49.686;21.766;2023-10-13T02:22:12;98500.69;;;13.31;100.00
35226;BME280;21813;49.686;21.766;2023-10-13T02:24:53;98497.38;;;13.29;100.00
35226;BME280;21813;49.686;21.766;2023-10-13T02:27:26;98507.44;;;13.34;100.00
35226;BME280;21813;49.686;21.766;2023-10-13T02:29:55;98490.75;;;13.25;100.00
35226;BME280;21813;49.686;21.766;2023-10-13T02:32:24;98509.50;;;13.30;100.00
35226;BME280;21813;49.686;21.766;2023-10-13T02:34:56;98493.66;;;13.22;100.00
35226;BME280;21813;49.686;21.766;2023-10-13T02:37:31;98500.09;;;13.18;100.00
35226;BME280;21813;49.686;21.766;2023-10-13T02:40:00;98515.00;;;13.27;100.00
35226;BME280;21813;49.686;21.766;2023-10-13T02:42:26;98514.72;;;13.30;100.00
35226;BME280;21813;49.686;21.766;2023-10-13T02:44:56;98494.59;;;13.21;100.00
35226;BME280;21813;49.686;21.766;2023-10-13T02:47:24;98506.44;;;13.25;100.00
35226;BME280;21813;49.686;21.766;2023-10-13T02:49:54;98512.13;;;13.30;100.00
35226;BME280;21813;49.686;21.766;2023-10-13T02:52:20;98511.41;;;13.28;100.00
35226;BME280;21813;49.686;21.766;2023-10-13T02:55:00;98503.97;;;13.23;100.00
35226;BME280;21813;49.686;21.766;2023-10-13T02:57:27;98499.41;;;13.16;100.00
35226;BME280;21813;49.686;21.766;2023-10-13T03:00:02;98489.22;;;13.13;100.00
35226;BME280;21813;49.686;21.766;2023-10-13T03:02:43;98489.34;;;13.11;100.00
35226;BME280;21813;49.686;21.766;2023-10-13T03:05:20;98487.78;;;13.09;100.00
35226;BME280;21813;49.686;21.766;2023-10-13T03:07:48;98496.25;;;13.12;100.00
35226;BME280;21813;49.686;21.766;2023-10-13T03:10:18;98489.31;;;13.02;100.00
35226;BME280;21813;49.686;21.766;2023-10-13T03:12:47;98489.59;;;12.99;100.00
35226;BME280;21813;49.686;21.766;2023-10-13T03:15:24;98492.31;;;12.97;100.00
35226;BME280;21813;49.686;21.766;2023-10-13T03:17:57;98499.34;;;12.97;100.00
35226;BME280;21813;49.686;21.766;2023-10-13T03:20:38;98496.03;;;12.95;100.00
35226;BME280;21813;49.686;21.766;2023-10-13T03:23:10;98498.66;;;12.95;100.00
35226;BME280;21813;49.686;21.766;2023-10-13T03:25:56;98511.06;;;13.02;100.00
35226;BME280;21813;49.686;21.766;2023-10-13T03:28:43;98487.50;;;12.93;100.00
35226;BME280;21813;49.686;21.766;2023-10-13T03:32:15;98495.06;;;12.96;100.00
35226;BME280;21813;49.686;21.766;2023-10-13T03:34:52;98488.00;;;12.87;100.00
35226;BME280;21813;49.686;21.766;2023-10-13T03:37:38;98494.22;;;12.85;100.00
35226;BME280;21813;49.686;21.766;2023-10-13T03:43:02;98496.81;;;12.85;100.00
35226;BME280;21813;49.686;21.766;2023-10-13T03:45:40;98483.03;;;12.74;100.00
35226;BME280;21813;49.686;21.766;2023-10-13T03:48:53;98488.38;;;12.72;100.00
35226;BME280;21813;49.686;21.766;2023-10-13T03:51:48;98485.78;;;12.72;100.00
35226;BME280;21813;49.686;21.766;2023-10-13T03:54:31;98479.44;;;12.65;100.00
35226;BME280;21813;49.686;21.766;2023-10-13T03:57:16;98484.78;;;12.64;100.00
35226;BME280;21813;49.686;21.766;2023-10-13T03:59:44;98485.88;;;12.61;100.00
35226;BME280;21813;49.686;21.766;2023-10-13T04:02:16;98499.66;;;12.63;100.00
35226;BME280;21813;49.686;21.766;2023-10-13T04:04:46;98480.06;;;12.48;100.00
35226;BME280;21813;49.686;21.766;2023-10-13T04:07:27;98484.47;;;12.48;100.00
35226;BME280;21813;49.686;21.766;2023-10-13T04:10:28;98492.44;;;12.46;100.00
35226;BME280;21813;49.686;21.766;2023-10-13T04:13:39;98496.00;;;12.45;100.00
35226;BME280;21813;49.686;21.766;2023-10-13T04:16:30;98477.41;;;12.38;100.00
35226;BME280;21813;49.686;21.766;2023-10-13T04:19:20;98484.66;;;12.35;100.00
35226;BME280;21813;49.686;21.766;2023-10-13T04:22:11;98513.63;;;12.43;100.00
35226;BME280;21813;49.686;21.766;2023-10-13T04:24:48;98504.63;;;12.36;100.00
35226;BME280;21813;49.686;21.766;2023-10-13T04:27:49;98506.00;;;12.40;100.00
35226;BME280;21813;49.686;21.766;2023-10-13T04:30:21;98511.78;;;12.34;100.00
35226;BME280;21813;49.686;21.766;2023-10-13T04:33:08;98520.44;;;12.34;100.00
35226;BME280;21813;49.686;21.766;2023-10-13T04:36:14;98506.63;;;12.23;100.00
35226;BME280;21813;49.686;21.766;2023-10-13T04:38:49;98525.75;;;12.23;100.00
35226;BME280;21813;49.686;21.766;2023-10-13T04:41:31;98528.19;;;12.15;100.00
35226;BME280;21813;49.686;21.766;2023-10-13T04:44:25;98532.69;;;12.13;100.00
35226;BME280;21813;49.686;21.766;2023-10-13T04:47:15;98548.47;;;12.12;100.00
35226;BME280;21813;49.686;21.766;2023-10-13T04:50:51;98541.22;;;11.94;100.00
35226;BME280;21813;49.686;21.766;2023-10-13T04:53:47;98543.94;;;11.93;100.00
35226;BME280;21813;49.686;21.766;2023-10-13T05:00:23;98531.34;;;11.77;100.00
35226;BME280;21813;49.686;21.766;2023-10-13T05:03:37;98525.91;;;11.69;100.00
35226;BME280;21813;49.686;21.766;2023-10-13T05:06:35;98532.75;;;11.70;100.00
35226;BME280;21813;49.686;21.766;2023-10-13T05:09:21;98533.50;;;11.72;100.00
35226;BME280;21813;49.686;21.766;2023-10-13T05:12:07;98537.41;;;11.78;100.00
35226;BME280;21813;49.686;21.766;2023-10-13T05:14:52;98548.88;;;11.86;100.00
35226;BME280;21813;49.686;21.766;2023-10-13T05:17:36;98544.59;;;11.85;100.00
35226;BME280;21813;49.686;21.766;2023-10-13T05:20:20;98545.31;;;11.87;100.00
35226;BME280;21813;49.686;21.766;2023-10-13T05:23:06;98548.38;;;11.92;100.00
35226;BME280;21813;49.686;21.766;2023-10-13T05:25:50;98563.06;;;11.93;100.00
35226;BME280;21813;49.686;21.766;2023-10-13T05:28:34;98554.06;;;11.98;100.00
35226;BME280;21813;49.686;21.766;2023-10-13T05:31:18;98559.97;;;12.00;100.00
35226;BME280;21813;49.686;21.766;2023-10-13T05:34:03;98564.13;;;12.02;100.00
35226;BME280;21813;49.686;21.766;2023-10-13T05:36:47;98561.25;;;12.05;100.00
35226;BME280;21813;49.686;21.766;2023-10-13T05:39:32;98558.50;;;12.07;100.00
35226;BME280;21813;49.686;21.766;2023-10-13T05:42:16;98568.69;;;12.10;100.00
35226;BME280;21813;49.686;21.766;2023-10-13T05:45:00;98571.75;;;12.15;100.00
35226;BME280;21813;49.686;21.766;2023-10-13T05:47:44;98565.44;;;12.17;100.00
35226;BME280;21813;49.686;21.766;2023-10-13T05:50:10;98562.00;;;12.17;100.00
35226;BME280;21813;49.686;21.766;2023-10-13T05:52:49;98562.44;;;12.22;100.00
35226;BME280;21813;49.686;21.766;2023-10-13T05:55:25;98560.53;;;12.24;100.00
35226;BME280;21813;49.686;21.766;2023-10-13T05:58:09;98583.41;;;12.31;100.00
35226;BME280;21813;49.686;21.766;2023-10-13T06:00:54;98583.97;;;12.35;100.00
35226;BME280;21813;49.686;21.766;2023-10-13T06:03:38;98572.84;;;12.33;100.00
35226;BME280;21813;49.686;21.766;2023-10-13T06:06:22;98601.41;;;12.46;100.00
35226;BME280;21813;49.686;21.766;2023-10-13T06:09:06;98590.81;;;12.47;100.00
35226;BME280;21813;49.686;21.766;2023-10-13T06:11:51;98596.22;;;12.55;100.00
35226;BME280;21813;49.686;21.766;2023-10-13T06:14:35;98588.00;;;12.60;100.00
35226;BME280;21813;49.686;21.766;2023-10-13T06:17:20;98586.91;;;12.62;100.00
35226;BME280;21813;49.686;21.766;2023-10-13T06:20:05;98592.72;;;12.66;100.00
35226;BME280;21813;49.686;21.766;2023-10-13T06:22:50;98599.44;;;12.68;100.00
35226;BME280;21813;49.686;21.766;2023-10-13T06:25:34;98608.44;;;12.75;100.00
35226;BME280;21813;49.686;21.766;2023-10-13T06:28:20;98611.50;;;12.80;100.00
35226;BME280;21813;49.686;21.766;2023-10-13T06:31:05;98608.91;;;12.80;100.00
35226;BME280;21813;49.686;21.766;2023-10-13T06:33:35;98611.13;;;12.85;100.00
35226;BME280;21813;49.686;21.766;2023-10-13T06:36:02;98612.50;;;12.89;100.00
35226;BME280;21813;49.686;21.766;2023-10-13T06:38:30;98605.34;;;12.91;100.00
35226;BME280;21813;49.686;21.766;2023-10-13T06:41:02;98610.19;;;12.96;100.00
35226;BME280;21813;49.686;21.766;2023-10-13T06:43:35;98601.38;;;12.97;100.00
35226;BME280;21813;49.686;21.766;2023-10-13T06:46:09;98608.44;;;13.06;100.00
35226;BME280;21813;49.686;21.766;2023-10-13T06:48:46;98613.03;;;13.13;100.00
35226;BME280;21813;49.686;21.766;2023-10-13T06:51:12;98609.78;;;13.21;100.00
35226;BME280;21813;49.686;21.766;2023-10-13T06:53:44;98620.81;;;13.34;100.00
35226;BME280;21813;49.686;21.766;2023-10-13T06:56:13;98619.75;;;13.46;100.00
35226;BME280;21813;49.686;21.766;2023-10-13T06:58:44;98618.41;;;13.61;100.00
35226;BME280;21813;49.686;21.766;2023-10-13T07:01:13;98608.63;;;13.83;100.00
35226;BME280;21813;49.686;21.766;2023-10-13T07:03:42;98604.91;;;14.33;100.00
35226;BME280;21813;49.686;21.766;2023-10-13T07:06:09;98616.13;;;14.91;100.00
35226;BME280;21813;49.686;21.766;2023-10-13T07:08:48;98627.66;;;15.08;100.00
35226;BME280;21813;49.686;21.766;2023-10-13T07:11:24;98631.44;;;14.96;100.00
35226;BME280;21813;49.686;21.766;2023-10-13T07:13:59;98626.94;;;14.79;100.00
35226;BME280;21813;49.686;21.766;2023-10-13T07:16:26;98634.72;;;14.61;100.00
35226;BME280;21813;49.686;21.766;2023-10-13T07:19:01;98636.66;;;14.49;100.00
35226;BME280;21813;49.686;21.766;2023-10-13T07:21:33;98634.19;;;14.38;100.00
35226;BME280;21813;49.686;21.766;2023-10-13T07:23:59;98639.97;;;14.32;100.00
35226;BME280;21813;49.686;21.766;2023-10-13T07:26:35;98634.59;;;14.24;100.00
35226;BME280;21813;49.686;21.766;2023-10-13T07:29:12;98636.66;;;14.21;100.00
35226;BME280;21813;49.686;21.766;2023-10-13T07:31:38;98636.09;;;14.17;100.00
35226;BME280;21813;49.686;21.766;2023-10-13T07:34:06;98619.28;;;14.10;100.00
35226;BME280;21813;49.686;21.766;2023-10-13T07:36:41;98614.03;;;14.10;100.00
35226;BME280;21813;49.686;21.766;2023-10-13T07:39:08;98620.66;;;14.14;100.00
35226;BME280;21813;49.686;21.766;2023-10-13T07:41:52;98620.91;;;14.30;100.00
35226;BME280;21813;49.686;21.766;2023-10-13T07:44:32;98632.22;;;14.59;100.00
35226;BME280;21813;49.686;21.766;2023-10-13T07:47:00;98615.59;;;14.88;100.00
35226;BME280;21813;49.686;21.766;2023-10-13T07:49:34;98617.44;;;15.05;100.00
35226;BME280;21813;49.686;21.766;2023-10-13T07:52:07;98615.44;;;15.17;100.00
35226;BME280;21813;49.686;21.766;2023-10-13T07:54:45;98612.50;;;15.29;100.00
35226;BME280;21813;49.686;21.766;2023-10-13T07:57:15;98617.72;;;15.39;100.00
35226;BME280;21813;49.686;21.766;2023-10-13T07:59:43;98613.94;;;15.41;100.00
35226;BME280;21813;49.686;21.766;2023-10-13T08:02:29;98613.94;;;15.41;100.00
35226;BME280;21813;49.686;21.766;2023-10-13T08:05:14;98616.97;;;15.46;100.00
35226;BME280;21813;49.686;21.766;2023-10-13T08:07:51;98623.47;;;15.52;100.00
35226;BME280;21813;49.686;21.766;2023-10-13T08:10:18;98620.84;;;15.52;100.00
35226;BME280;21813;49.686;21.766;2023-10-13T08:12:44;98619.72;;;15.55;100.00
35226;BME280;21813;49.686;21.766;2023-10-13T08:15:09;98622.91;;;15.58;100.00
35226;BME280;21813;49.686;21.766;2023-10-13T08:17:48;98615.81;;;15.59;100.00
35226;BME280;21813;49.686;21.766;2023-10-13T08:20:17;98631.38;;;15.70;100.00
35226;BME280;21813;49.686;21.766;2023-10-13T08:22:45;98631.19;;;15.81;100.00
35226;BME280;21813;49.686;21.766;2023-10-13T08:25:13;98622.41;;;15.90;100.00
35226;BME280;21813;49.686;21.766;2023-10-13T08:27:47;98625.47;;;16.03;100.00
35226;BME280;21813;49.686;21.766;2023-10-13T08:30:35;98631.50;;;16.13;100.00
35226;BME280;21813;49.686;21.766;2023-10-13T08:33:18;98634.19;;;16.21;100.00
35226;BME280;21813;49.686;21.766;2023-10-13T08:35:44;98638.16;;;16.25;100.00
35226;BME280;21813;49.686;21.766;2023-10-13T08:38:29;98631.94;;;16.26;100.00
35226;BME280;21813;49.686;21.766;2023-10-13T08:40:58;98631.84;;;16.36;100.00
35226;BME280;21813;49.686;21.766;2023-10-13T08:43:43;98635.34;;;16.45;100.00
35226;BME280;21813;49.686;21.766;2023-10-13T08:46:19;98625.88;;;16.52;100.00
35226;BME280;21813;49.686;21.766;2023-10-13T08:48:55;98626.94;;;16.59;100.00
35226;BME280;21813;49.686;21.766;2023-10-13T08:51:41;98623.59;;;16.57;100.00
35226;BME280;21813;49.686;21.766;2023-10-13T08:54:15;98621.38;;;16.62;100.00
35226;BME280;21813;49.686;21.766;2023-10-13T08:57:02;98628.28;;;16.63;100.00
35226;BME280;21813;49.686;21.766;2023-10-13T08:59:47;98617.75;;;16.63;100.00
35226;BME280;21813;49.686;21.766;2023-10-13T09:02:22;98612.00;;;16.59;100.00
35226;BME280;21813;49.686;21.766;2023-10-13T09:05:10;98623.69;;;16.65;100.00
35226;BME280;21813;49.686;21.766;2023-10-13T09:07:55;98606.41;;;16.62;100.00
35226;BME280;21813;49.686;21.766;2023-10-13T09:10:24;98607.63;;;16.76;100.00
35226;BME280;21813;49.686;21.766;2023-10-13T09:12:59;98615.47;;;16.94;100.00
35226;BME280;21813;49.686;21.766;2023-10-13T09:15:30;98614.53;;;17.03;100.00
35226;BME280;21813;49.686;21.766;2023-10-13T09:18:28;98606.84;;;17.09;100.00
35226;BME280;21813;49.686;21.766;2023-10-13T09:21:15;98610.81;;;17.13;100.00
35226;BME280;21813;49.686;21.766;2023-10-13T09:24:11;98613.47;;;17.21;100.00
35226;BME280;21813;49.686;21.766;2023-10-13T09:26:48;98610.00;;;17.21;100.00
35226;BME280;21813;49.686;21.766;2023-10-13T09:29:20;98617.13;;;17.29;100.00
35226;BME280;21813;49.686;21.766;2023-10-13T09:32:00;98616.47;;;17.27;100.00
35226;BME280;21813;49.686;21.766;2023-10-13T09:34:27;98614.50;;;17.29;100.00
35226;BME280;21813;49.686;21.766;2023-10-13T09:36:59;98612.50;;;17.31;100.00
35226;BME280;21813;49.686;21.766;2023-10-13T09:39:25;98610.72;;;17.39;100.00
35226;BME280;21813;49.686;21.766;2023-10-13T09:42:11;98612.25;;;17.50;100.00
35226;BME280;21813;49.686;21.766;2023-10-13T09:44:38;98621.34;;;17.55;100.00
35226;BME280;21813;49.686;21.766;2023-10-13T09:47:10;98619.19;;;17.51;100.00
35226;BME280;21813;49.686;21.766;2023-10-13T09:49:45;98610.59;;;17.49;100.00
35226;BME280;21813;49.686;21.766;2023-10-13T09:52:19;98605.31;;;17.49;100.00
35226;BME280;21813;49.686;21.766;2023-10-13T09:57:34;98606.34;;;17.56;100.00
35226;BME280;21813;49.686;21.766;2023-10-13T10:00:10;98595.81;;;17.56;100.00
35226;BME280;21813;49.686;21.766;2023-10-13T10:03:06;98605.91;;;17.60;100.00
35226;BME280;21813;49.686;21.766;2023-10-13T10:05:42;98603.09;;;17.62;100.00
35226;BME280;21813;49.686;21.766;2023-10-13T10:08:23;98612.34;;;17.66;100.00
35226;BME280;21813;49.686;21.766;2023-10-13T10:14:20;98599.00;;;17.67;100.00
35226;BME280;21813;49.686;21.766;2023-10-13T10:17:04;98598.50;;;17.72;100.00
35226;BME280;21813;49.686;21.766;2023-10-13T10:19:52;98608.91;;;17.74;100.00
35226;BME280;21813;49.686;21.766;2023-10-13T10:22:32;98591.09;;;17.76;100.00
35226;BME280;21813;49.686;21.766;2023-10-13T10:25:11;98593.72;;;17.76;100.00
35226;BME280;21813;49.686;21.766;2023-10-13T10:27:58;98589.31;;;17.84;100.00
35226;BME280;21813;49.686;21.766;2023-10-13T10:30:29;98595.56;;;17.91;100.00
35226;BME280;21813;49.686;21.766;2023-10-13T10:32:59;98592.59;;;17.94;100.00
35226;BME280;21813;49.686;21.766;2023-10-13T10:35:27;98584.03;;;18.00;100.00
35226;BME280;21813;49.686;21.766;2023-10-13T10:38:17;98586.69;;;18.08;100.00
35226;BME280;21813;49.686;21.766;2023-10-13T10:40:53;98581.41;;;18.08;100.00
35226;BME280;21813;49.686;21.766;2023-10-13T10:45:56;98580.91;;;18.37;100.00
35226;BME280;21813;49.686;21.766;2023-10-13T10:48:28;98573.16;;;18.44;100.00
35226;BME280;21813;49.686;21.766;2023-10-13T10:51:07;98566.72;;;18.54;100.00
35226;BME280;21813;49.686;21.766;2023-10-13T10:53:39;98575.75;;;18.68;100.00
35226;BME280;21813;49.686;21.766;2023-10-13T10:56:12;98568.00;;;18.75;100.00
35226;BME280;21813;49.686;21.766;2023-10-13T10:58:59;98569.13;;;18.88;100.00
35226;BME280;21813;49.686;21.766;2023-10-13T11:01:47;98565.81;;;18.94;100.00
35226;BME280;21813;49.686;21.766;2023-10-13T11:04:13;98558.72;;;18.95;100.00
35226;BME280;21813;49.686;21.766;2023-10-13T11:06:52;98569.41;;;19.02;100.00
35226;BME280;21813;49.686;21.766;2023-10-13T11:09:35;98563.78;;;19.05;100.00
35226;BME280;21813;49.686;21.766;2023-10-13T11:12:14;98561.09;;;19.13;100.00
35226;BME280;21813;49.686;21.766;2023-10-13T11:15:02;98562.25;;;19.18;100.00
35226;BME280;21813;49.686;21.766;2023-10-13T11:17:30;98560.44;;;19.19;100.00
35226;BME280;21813;49.686;21.766;2023-10-13T11:20:12;98556.09;;;19.26;100.00
35226;BME280;21813;49.686;21.766;2023-10-13T11:23:00;98559.41;;;19.28;100.00
35226;BME280;21813;49.686;21.766;2023-10-13T11:25:31;98560.34;;;19.35;100.00
35226;BME280;21813;49.686;21.766;2023-10-13T11:28:11;98557.34;;;19.38;100.00
35226;BME280;21813;49.686;21.766;2023-10-13T11:30:44;98558.97;;;19.47;100.00
35226;BME280;21813;49.686;21.766;2023-10-13T11:33:18;98556.63;;;19.52;100.00
35226;BME280;21813;49.686;21.766;2023-10-13T11:35:48;98549.00;;;19.57;100.00
35226;BME280;21813;49.686;21.766;2023-10-13T11:46:12;98554.66;;;19.54;100.00
35226;BME280;21813;49.686;21.766;2023-10-13T11:48:40;98550.19;;;19.55;100.00
35226;BME280;21813;49.686;21.766;2023-10-13T11:51:11;98549.72;;;19.51;100.00
35226;BME280;21813;49.686;21.766;2023-10-13T11:53:44;98549.72;;;19.51;100.00
35226;BME280;21813;49.686;21.766;2023-10-13T11:56:11;98551.69;;;19.49;100.00
35226;BME280;21813;49.686;21.766;2023-10-13T11:58:39;98550.41;;;19.45;100.00
35226;BME280;21813;49.686;21.766;2023-10-13T12:01:05;98540.31;;;19.40;100.00
35226;BME280;21813;49.686;21.766;2023-10-13T12:03:42;98544.94;;;19.38;100.00
35226;BME280;21813;49.686;21.766;2023-10-13T12:06:28;98543.78;;;19.41;100.00
35226;BME280;21813;49.686;21.766;2023-10-13T12:09:07;98554.38;;;19.41;100.00
35226;BME280;21813;49.686;21.766;2023-10-13T12:11:46;98558.00;;;19.40;100.00
35226;BME280;21813;49.686;21.766;2023-10-13T12:14:15;98551.88;;;19.39;100.00
35226;BME280;21813;49.686;21.766;2023-10-13T12:16:47;98556.72;;;19.36;100.00
35226;BME280;21813;49.686;21.766;2023-10-13T12:19:19;98554.38;;;19.33;100.00
35226;BME280;21813;49.686;21.766;2023-10-13T12:21:49;98552.56;;;19.33;100.00
35226;BME280;21813;49.686;21.766;2023-10-13T12:24:16;98544.16;;;19.30;100.00
35226;BME280;21813;49.686;21.766;2023-10-13T12:26:56;98541.22;;;19.25;100.00
35226;BME280;21813;49.686;21.766;2023-10-13T12:29:24;98544.84;;;19.24;100.00
35226;BME280;21813;49.686;21.766;2023-10-13T12:31:57;98544.56;;;19.19;100.00
35226;BME280;21813;49.686;21.766;2023-10-13T12:34:39;98530.34;;;19.20;100.00
35226;BME280;21813;49.686;21.766;2023-10-13T12:37:24;98527.69;;;19.20;100.00
35226;BME280;21813;49.686;21.766;2023-10-13T12:40:05;98531.16;;;19.20;100.00
35226;BME280;21813;49.686;21.766;2023-10-13T12:42:50;98539.56;;;19.24;100.00
35226;BME280;21813;49.686;21.766;2023-10-13T12:45:42;98527.38;;;19.23;100.00
35226;BME280;21813;49.686;21.766;2023-10-13T12:48:27;98524.72;;;19.23;100.00
35226;BME280;21813;49.686;21.766;2023-10-13T12:51:12;98520.78;;;19.19;100.00
35226;BME280;21813;49.686;21.766;2023-10-13T12:53:57;98516.13;;;19.21;100.00
35226;BME280;21813;49.686;21.766;2023-10-13T12:56:40;98513.66;;;19.19;100.00
35226;BME280;21813;49.686;21.766;2023-10-13T12:59:10;98503.75;;;19.21;100.00
35226;BME280;21813;49.686;21.766;2023-10-13T13:01:40;98507.06;;;19.23;100.00
35226;BME280;21813;49.686;21.766;2023-10-13T13:04:11;98500.94;;;19.23;100.00
35226;BME280;21813;49.686;21.766;2023-10-13T13:06:45;98504.88;;;19.27;100.00
35226;BME280;21813;49.686;21.766;2023-10-13T13:09:11;98500.94;;;19.23;100.00
35226;BME280;21813;49.686;21.766;2023-10-13T13:11:38;98495.13;;;19.27;100.00
35226;BME280;21813;49.686;21.766;2023-10-13T13:14:06;98494.94;;;19.29;100.00
35226;BME280;21813;49.686;21.766;2023-10-13T13:16:36;98492.13;;;19.30;100.00
35226;BME280;21813;49.686;21.766;2023-10-13T13:19:04;98484.69;;;19.34;100.00
35226;BME280;21813;49.686;21.766;2023-10-13T13:21:37;98492.91;;;19.39;100.00
35226;BME280;21813;49.686;21.766;2023-10-13T13:24:03;98488.81;;;19.36;100.00
35226;BME280;21813;49.686;21.766;2023-10-13T13:26:32;98484.34;;;19.37;100.00
35226;BME280;21813;49.686;21.766;2023-10-13T13:28:58;98482.84;;;19.34;100.00
35226;BME280;21813;49.686;21.766;2023-10-13T13:31:26;98484.22;;;19.30;100.00
35226;BME280;21813;49.686;21.766;2023-10-13T13:33:57;98478.47;;;19.27;100.00
35226;BME280;21813;49.686;21.766;2023-10-13T13:36:24;98468.56;;;19.21;100.00
35226;BME280;21813;49.686;21.766;2023-10-13T13:38:51;98475.22;;;19.17;100.00
35226;BME280;21813;49.686;21.766;2023-10-13T13:41:21;98486.75;;;19.16;100.00
35226;BME280;21813;49.686;21.766;2023-10-13T13:43:48;98475.72;;;19.12;100.00
35226;BME280;21813;49.686;21.766;2023-10-13T13:46:24;98483.50;;;19.14;100.00
35226;BME280;21813;49.686;21.766;2023-10-13T13:48:59;98475.25;;;19.09;100.00
35226;BME280;21813;49.686;21.766;2023-10-13T13:51:28;98474.44;;;19.08;100.00
35226;BME280;21813;49.686;21.766;2023-10-13T13:53:55;98470.97;;;19.08;100.00
35226;BME280;21813;49.686;21.766;2023-10-13T13:56:23;98466.66;;;19.07;100.00